Time;durP1;ratioP1;P1;durP2;ratioP2;P2;SDS_P1;SDS_P2;PMS_P1;PMS_P2;Temp;Humidity;BMP_temperature;BMP_pressure;BME280_temperature;BME280_humidity;BME280_pressure;Samples;Min_cycle;Max_cycle;Signal;HPM_P1;HPM_P2
2023/01/14 00:00:48;;;;;;;11.73;7.80;;;;;;;;;;4996936;28;20050;-68
2023/01/14 00:03:14;;;;;;;11.43;8.25;;;;;;;;;;5014098;28;20022;-68
2023/01/14 00:05:39;;;;;;;10.07;6.90;;;;;;;;;;5014081;28;20470;-68
2023/01/14 00:08:04;;;;;;;7.88;6.40;;;;;;;;;;5013799;28;20026;-68
2023/01/14 00:10:30;;;;;;;7.90;6.57;;;;;;;;;;5014026;28;20571;-68
2023/01/14 00:12:55;;;;;;;7.32;6.63;;;;;;;;;;5012501;28;20026;-68
2023/01/14 00:15:21;;;;;;;11.82;7.40;;;;;;;;;;5013921;28;20485;-67
2023/01/14 00:17:48;;;;;;;14.15;8.65;;;;;;;;;;5013641;28;20049;-67
2023/01/14 00:20:13;;;;;;;16.73;9.15;;;;;;;;;;5013722;28;20109;-67
2023/01/14 00:22:41;;;;;;;15.13;8.93;;;;;;;;;;5013385;28;20573;-67
2023/01/14 00:25:07;;;;;;;17.27;8.82;;;;;;;;;;5013973;28;20389;-67
2023/01/14 00:27:32;;;;;;;15.15;9.20;;;;;;;;;;5012191;28;20049;-67
2023/01/14 00:29:58;;;;;;;15.40;9.45;;;;;;;;;;5013757;28;20104;-67
2023/01/14 00:32:24;;;;;;;11.93;7.88;;;;;;;;;;5012561;28;20045;-67
2023/01/14 00:34:49;;;;;;;9.20;7.75;;;;;;;;;;5013786;28;20056;-67
2023/01/14 00:37:17;;;;;;;10.68;7.65;;;;;;;;;;5012369;28;20038;-67
2023/01/14 00:39:42;;;;;;;10.07;7.72;;;;;;;;;;5013678;28;20113;-67
2023/01/14 00:42:11;;;;;;;10.43;8.20;;;;;;;;;;5013810;28;20080;-67
2023/01/14 00:44:36;;;;;;;9.90;8.40;;;;;;;;;;5013053;28;20361;-67
2023/01/14 00:47:02;;;;;;;11.80;8.65;;;;;;;;;;5013116;28;20540;-66
2023/01/14 00:49:27;;;;;;;11.13;8.23;;;;;;;;;;5012717;28;20104;-64
2023/01/14 00:51:53;;;;;;;11.68;9.13;;;;;;;;;;5016788;28;20409;-64
2023/01/14 00:54:19;;;;;;;12.52;9.05;;;;;;;;;;5017426;28;20042;-65
2023/01/14 00:56:45;;;;;;;10.63;8.32;;;;;;;;;;5017654;28;20080;-65
2023/01/14 00:59:15;;;;;;;11.13;8.35;;;;;;;;;;5012459;28;20038;-64
2023/01/14 01:01:41;;;;;;;9.50;8.45;;;;;;;;;;4997670;28;20046;-66
2023/01/14 01:04:07;;;;;;;11.65;9.00;;;;;;;;;;4996034;28;20035;-64
2023/01/14 01:06:32;;;;;;;10.45;8.50;;;;;;;;;;4997471;28;20114;-66
2023/01/14 01:09:00;;;;;;;13.43;8.98;;;;;;;;;;4996127;28;20042;-66
2023/01/14 01:11:25;;;;;;;13.48;9.70;;;;;;;;;;5012287;28;20056;-66
2023/01/14 01:13:51;;;;;;;11.35;8.07;;;;;;;;;;4997723;28;20045;-66
2023/01/14 01:16:23;;;;;;;13.38;9.13;;;;;;;;;;5012265;28;20109;-67
2023/01/14 01:18:48;;;;;;;17.20;10.70;;;;;;;;;;4997053;28;20054;-66
2023/01/14 01:21:15;;;;;;;12.80;8.63;;;;;;;;;;4997202;28;20035;-68
2023/01/14 01:23:41;;;;;;;9.52;7.57;;;;;;;;;;4995754;28;20046;-68
2023/01/14 01:26:10;;;;;;;10.98;7.65;;;;;;;;;;4995686;28;20093;-70
2023/01/14 01:28:35;;;;;;;10.45;8.05;;;;;;;;;;4995653;28;20026;-70
2023/01/14 01:31:01;;;;;;;8.35;7.20;;;;;;;;;;4997069;28;20046;-70
2023/01/14 01:33:27;;;;;;;9.60;7.40;;;;;;;;;;4979328;28;20510;-68
2023/01/14 01:36:00;;;;;;;9.77;7.18;;;;;;;;;;4996795;28;20037;-68
2023/01/14 01:38:25;;;;;;;8.52;6.55;;;;;;;;;;4997073;28;20475;-68
2023/01/14 01:40:51;;;;;;;8.65;7.15;;;;;;;;;;4995370;28;20045;-70
2023/01/14 01:43:23;;;;;;;9.25;6.57;;;;;;;;;;4996665;28;20368;-69
2023/01/14 01:45:49;;;;;;;8.48;7.15;;;;;;;;;;4995726;28;20035;-68
2023/01/14 01:48:20;;;;;;;9.77;7.40;;;;;;;;;;4996534;28;20035;-68
2023/01/14 01:50:47;;;;;;;8.73;7.32;;;;;;;;;;4996485;28;20034;-68
2023/01/14 01:53:13;;;;;;;7.82;7.03;;;;;;;;;;4996281;28;20521;-68
2023/01/14 01:55:39;;;;;;;11.25;7.63;;;;;;;;;;4997128;28;20038;-69
2023/01/14 01:58:05;;;;;;;10.45;7.78;;;;;;;;;;5011553;28;20121;-68
2023/01/14 02:00:30;;;;;;;10.70;7.38;;;;;;;;;;4996451;28;20142;-68
2023/01/14 02:02:58;;;;;;;12.10;7.90;;;;;;;;;;4995813;28;20030;-66
2023/01/14 02:05:25;;;;;;;13.82;8.50;;;;;;;;;;5011292;28;20053;-65
2023/01/14 02:07:51;;;;;;;11.93;8.88;;;;;;;;;;5011294;28;20458;-65
2023/01/14 02:10:16;;;;;;;12.20;8.85;;;;;;;;;;4994818;28;20049;-65
2023/01/14 02:12:50;;;;;;;13.88;9.15;;;;;;;;;;4996325;28;20045;-65
2023/01/14 02:15:22;;;;;;;11.32;8.75;;;;;;;;;;4994809;28;20073;-64
2023/01/14 02:18:06;;;;;;;10.20;7.93;;;;;;;;;;4995958;28;20046;-65
2023/01/14 02:20:35;;;;;;;13.25;8.88;;;;;;;;;;5011088;28;20038;-68
2023/01/14 02:23:28;;;;;;;18.10;9.75;;;;;;;;;;5011033;28;20104;-72
2023/01/14 02:25:58;;;;;;;15.93;8.82;;;;;;;;;;5010903;28;20038;-72
2023/01/14 02:28:23;;;;;;;18.73;9.00;;;;;;;;;;4994710;28;20042;-73
2023/01/14 02:30:56;;;;;;;17.63;9.50;;;;;;;;;;4995041;28;20117;-73
2023/01/14 02:33:22;;;;;;;11.52;8.02;;;;;;;;;;5010797;28;20046;-73
2023/01/14 02:35:58;;;;;;;11.30;7.88;;;;;;;;;;4995047;28;20045;-73
2023/01/14 02:38:25;;;;;;;8.63;6.55;;;;;;;;;;5010663;28;20141;-73
2023/01/14 02:40:56;;;;;;;9.40;7.13;;;;;;;;;;5010694;28;20077;-72
2023/01/14 02:46:41;;;;;;;9.30;7.00;;;;;;;;;;4993797;28;20066;-73
2023/01/14 02:49:10;;;;;;;11.35;7.50;;;;;;;;;;4958850;28;20035;-75
2023/01/14 02:51:36;;;;;;;10.73;7.43;;;;;;;;;;4977771;28;20475;-75
2023/01/14 02:54:01;;;;;;;8.70;7.20;;;;;;;;;;4995273;28;20054;-75
2023/01/14 02:56:30;;;;;;;7.85;6.88;;;;;;;;;;4994301;28;20034;-71
2023/01/14 02:59:01;;;;;;;8.05;6.20;;;;;;;;;;4990635;28;20472;-71
2023/01/14 03:01:48;;;;;;;7.72;5.60;;;;;;;;;;4993944;28;20490;-71
2023/01/14 03:04:19;;;;;;;7.40;5.85;;;;;;;;;;4993859;28;20490;-68
2023/01/14 03:06:48;;;;;;;7.25;6.38;;;;;;;;;;4993844;28;20042;-67
2023/01/14 03:09:53;;;;;;;6.95;6.25;;;;;;;;;;4994091;28;20039;-66
2023/01/14 03:12:19;;;;;;;6.25;4.70;;;;;;;;;;4935703;29;20044;-67
2023/01/14 03:14:48;;;;;;;8.25;6.13;;;;;;;;;;4969358;28;20049;-67
2023/01/14 03:17:21;;;;;;;7.03;6.10;;;;;;;;;;4995266;28;20467;-69
2023/01/14 03:19:54;;;;;;;6.63;6.00;;;;;;;;;;4977320;28;20052;-70
2023/01/14 03:22:20;;;;;;;6.43;5.72;;;;;;;;;;4995240;28;20053;-70
2023/01/14 03:24:45;;;;;;;6.45;5.80;;;;;;;;;;4993779;28;20030;-69
2023/01/14 03:27:19;;;;;;;7.78;5.68;;;;;;;;;;4994069;28;20457;-73
2023/01/14 03:29:47;;;;;;;7.07;5.90;;;;;;;;;;4993917;28;20069;-73
2023/01/14 03:32:16;;;;;;;7.65;6.35;;;;;;;;;;4993318;28;20375;-73
2023/01/14 03:34:44;;;;;;;6.10;5.50;;;;;;;;;;4993370;28;20064;-67
2023/01/14 03:37:11;;;;;;;6.93;6.05;;;;;;;;;;4993317;28;20086;-68
2023/01/14 03:39:38;;;;;;;7.03;5.45;;;;;;;;;;4993636;28;20042;-68
2023/01/14 03:42:20;;;;;;;8.23;6.68;;;;;;;;;;4995208;28;20047;-69
2023/01/14 03:44:54;;;;;;;8.15;6.93;;;;;;;;;;4994540;28;20045;-71
2023/01/14 03:47:21;;;;;;;7.70;6.18;;;;;;;;;;4977058;28;20084;-71
2023/01/14 03:49:47;;;;;;;7.03;6.32;;;;;;;;;;4994596;28;20037;-64
2023/01/14 03:52:33;;;;;;;9.85;6.97;;;;;;;;;;5038307;23;20400;-71
2023/01/14 03:55:04;;;;;;;7.55;6.35;;;;;;;;;;5077313;22;20084;-71
2023/01/14 03:57:32;;;;;;;6.38;5.57;;;;;;;;;;5014667;28;20037;-69
2023/01/14 04:00:10;;;;;;;6.22;5.60;;;;;;;;;;5033506;28;20493;-68
2023/01/14 04:02:39;;;;;;;8.13;6.85;;;;;;;;;;5016545;28;20276;-67
2023/01/14 04:05:21;;;;;;;6.85;6.05;;;;;;;;;;5034162;28;20037;-67
2023/01/14 04:07:51;;;;;;;8.02;6.53;;;;;;;;;;5016175;28;20044;-66
2023/01/14 04:10:17;;;;;;;7.68;6.43;;;;;;;;;;5015775;28;20107;-66
2023/01/14 04:15:20;;;;;;;7.70;6.50;;;;;;;;;;5033188;28;20552;-68
2023/01/14 04:15:28;;;;;;;8.05;6.32;;;;;;;;;;5033760;28;20053;-68
2023/01/14 04:17:53;;;;;;;8.45;6.45;;;;;;;;;;5033526;28;20042;-68
2023/01/14 04:20:19;;;;;;;8.27;6.85;;;;;;;;;;5033404;28;20046;-68
2023/01/14 04:22:44;;;;;;;6.50;5.65;;;;;;;;;;5033188;28;20036;-68
2023/01/14 04:25:09;;;;;;;5.45;4.60;;;;;;;;;;5033495;28;20076;-68
2023/01/14 04:27:35;;;;;;;6.57;5.97;;;;;;;;;;5019788;28;20091;-68
2023/01/14 04:30:04;;;;;;;5.75;4.95;;;;;;;;;;5037503;28;20029;-68
2023/01/14 04:32:29;;;;;;;5.68;5.07;;;;;;;;;;5019291;28;20103;-70
2023/01/14 04:34:55;;;;;;;5.53;4.97;;;;;;;;;;5036540;28;20037;-63
2023/01/14 04:37:21;;;;;;;6.97;5.22;;;;;;;;;;5036840;28;20034;-64
2023/01/14 04:39:46;;;;;;;5.68;5.18;;;;;;;;;;5036839;28;20084;-64
2023/01/14 04:42:27;;;;;;;5.50;5.00;;;;;;;;;;5036720;28;20128;-65
2023/01/14 04:44:53;;;;;;;6.00;4.80;;;;;;;;;;5036419;28;20482;-66
2023/01/14 04:47:18;;;;;;;6.03;4.80;;;;;;;;;;5035947;28;20394;-66
2023/01/14 04:49:43;;;;;;;5.40;4.75;;;;;;;;;;5036687;28;20034;-65
2023/01/14 04:52:09;;;;;;;5.50;5.00;;;;;;;;;;5036795;28;20476;-64
2023/01/14 04:54:34;;;;;;;6.55;4.63;;;;;;;;;;5018872;28;20064;-64
2023/01/14 04:56:59;;;;;;;4.50;4.03;;;;;;;;;;5036394;28;20044;-64
2023/01/14 04:59:25;;;;;;;4.80;4.25;;;;;;;;;;5036210;28;20041;-64
2023/01/14 05:01:50;;;;;;;6.65;5.05;;;;;;;;;;5036220;28;20029;-63
2023/01/14 05:04:16;;;;;;;6.50;4.88;;;;;;;;;;5035699;28;20053;-63
2023/01/14 05:06:41;;;;;;;6.80;4.75;;;;;;;;;;5035533;28;20393;-63
2023/01/14 05:09:07;;;;;;;5.55;4.60;;;;;;;;;;5017602;28;20025;-63
2023/01/14 05:11:32;;;;;;;5.22;4.50;;;;;;;;;;5035553;28;20469;-64
2023/01/14 05:13:57;;;;;;;5.28;4.75;;;;;;;;;;5034864;28;20091;-65
2023/01/14 05:16:23;;;;;;;4.97;3.75;;;;;;;;;;5035569;28;20088;-64
2023/01/14 05:18:49;;;;;;;6.85;4.28;;;;;;;;;;5017814;28;20104;-65
2023/01/14 05:21:17;;;;;;;6.72;4.53;;;;;;;;;;5034865;28;20389;-64
2023/01/14 05:23:43;;;;;;;9.75;5.13;;;;;;;;;;5034794;28;20045;-62
2023/01/14 05:26:08;;;;;;;7.95;4.85;;;;;;;;;;5035255;28;20105;-62
2023/01/14 05:28:34;;;;;;;5.30;3.50;;;;;;;;;;5000736;28;20370;-64
2023/01/14 05:30:59;;;;;;;7.75;4.53;;;;;;;;;;5035515;28;20041;-64
2023/01/14 05:33:30;;;;;;;5.85;4.05;;;;;;;;;;5035410;28;20046;-64
2023/01/14 05:35:56;;;;;;;6.13;5.57;;;;;;;;;;5035295;28;20374;-67
2023/01/14 05:38:24;;;;;;;5.75;5.15;;;;;;;;;;5035126;28;20038;-67
2023/01/14 05:40:50;;;;;;;6.53;5.10;;;;;;;;;;5034609;28;20436;-66
2023/01/14 05:46:02;;;;;;;4.43;4.03;;;;;;;;;;5035028;28;20049;-64
2023/01/14 05:48:27;;;;;;;4.65;3.63;;;;;;;;;;5035086;28;20047;-63
2023/01/14 05:50:53;;;;;;;5.97;4.45;;;;;;;;;;5034939;28;20037;-69
2023/01/14 05:53:19;;;;;;;5.22;4.68;;;;;;;;;;5034873;28;20045;-64
2023/01/14 05:55:45;;;;;;;6.53;5.43;;;;;;;;;;5017066;28;20227;-72
2023/01/14 05:58:10;;;;;;;6.72;5.50;;;;;;;;;;5017487;28;20056;-71
2023/01/14 06:06:23;;;;;;;5.13;4.50;;;;;;;;;;5034459;28;20034;-67
2023/01/14 06:08:55;;;;;;;4.35;3.95;;;;;;;;;;5034589;28;20116;-66
2023/01/14 06:11:22;;;;;;;5.32;3.17;;;;;;;;;;5016625;28;20049;-66
2023/01/14 06:13:48;;;;;;;4.95;3.85;;;;;;;;;;5034134;28;20088;-66
2023/01/14 06:16:14;;;;;;;5.03;4.03;;;;;;;;;;5034360;28;20488;-66
2023/01/14 06:18:42;;;;;;;4.18;3.70;;;;;;;;;;5016508;28;20149;-60
2023/01/14 06:21:12;;;;;;;4.78;4.30;;;;;;;;;;5016529;28;20069;-60
2023/01/14 06:23:37;;;;;;;2.80;2.58;;;;;;;;;;5016562;28;20095;-60
2023/01/14 06:26:03;;;;;;;5.82;4.70;;;;;;;;;;5034166;28;20041;-60
2023/01/14 06:28:29;;;;;;;5.60;4.43;;;;;;;;;;5034099;28;20038;-61
2023/01/14 06:30:54;;;;;;;6.63;5.13;;;;;;;;;;5034984;28;20046;-61
2023/01/14 06:33:20;;;;;;;6.10;5.55;;;;;;;;;;5034561;28;20041;-61
2023/01/14 06:35:45;;;;;;;4.47;4.13;;;;;;;;;;5034024;28;20551;-61
2023/01/14 06:38:11;;;;;;;5.40;4.30;;;;;;;;;;5034573;28;20041;-61
2023/01/14 06:40:38;;;;;;;6.15;5.00;;;;;;;;;;5032994;28;20543;-61
2023/01/14 06:43:03;;;;;;;6.63;5.75;;;;;;;;;;5031850;28;20037;-64
2023/01/14 06:45:29;;;;;;;6.57;5.40;;;;;;;;;;5031788;28;20044;-66
2023/01/14 06:47:54;;;;;;;6.47;5.85;;;;;;;;;;5031408;28;20417;-65
2023/01/14 06:50:20;;;;;;;8.35;6.28;;;;;;;;;;5031325;28;20039;-67
2023/01/14 06:52:45;;;;;;;12.27;9.00;;;;;;;;;;5013578;28;20477;-65
2023/01/14 06:55:11;;;;;;;9.85;8.32;;;;;;;;;;5031490;28;20353;-65
2023/01/14 06:57:36;;;;;;;8.50;6.57;;;;;;;;;;5033318;28;20041;-65
2023/01/14 07:00:02;;;;;;;6.70;6.07;;;;;;;;;;5033322;28;20411;-65
2023/01/14 07:02:28;;;;;;;7.85;5.75;;;;;;;;;;5033284;28;20091;-66
2023/01/14 07:04:53;;;;;;;7.00;4.85;;;;;;;;;;5033503;28;20033;-67
2023/01/14 07:07:19;;;;;;;5.80;5.20;;;;;;;;;;5033212;28;20444;-63
2023/01/14 07:09:44;;;;;;;6.28;5.20;;;;;;;;;;5015646;28;20034;-62
2023/01/14 07:12:10;;;;;;;7.15;6.07;;;;;;;;;;5015551;28;20450;-62
2023/01/14 07:14:35;;;;;;;9.30;6.25;;;;;;;;;;5033111;28;20033;-62
2023/01/14 07:17:01;;;;;;;9.18;6.22;;;;;;;;;;5015272;28;20393;-61
2023/01/14 07:19:26;;;;;;;7.47;6.65;;;;;;;;;;5033035;28;20116;-61
2023/01/14 07:21:52;;;;;;;6.75;5.53;;;;;;;;;;5032899;28;20033;-62
2023/01/14 07:24:17;;;;;;;8.15;5.68;;;;;;;;;;5033022;28;20052;-62
2023/01/14 07:26:42;;;;;;;9.88;6.80;;;;;;;;;;5033003;28;20108;-62
2023/01/14 07:29:07;;;;;;;7.95;6.57;;;;;;;;;;5033047;28;20044;-62
2023/01/14 07:31:33;;;;;;;8.63;7.18;;;;;;;;;;5032947;28;20037;-61
2023/01/14 07:33:58;;;;;;;11.13;7.22;;;;;;;;;;5032838;28;20513;-62
2023/01/14 07:36:23;;;;;;;7.55;6.72;;;;;;;;;;5032660;28;20041;-62
2023/01/14 07:38:49;;;;;;;10.57;7.13;;;;;;;;;;5032768;28;20072;-62
2023/01/14 07:41:18;;;;;;;8.80;6.50;;;;;;;;;;5032504;28;20045;-62
2023/01/14 07:43:49;;;;;;;7.35;6.35;;;;;;;;;;5015018;28;20037;-61
2023/01/14 07:46:16;;;;;;;7.30;5.72;;;;;;;;;;5015071;28;20029;-62
2023/01/14 07:48:42;;;;;;;7.57;6.13;;;;;;;;;;5015280;28;20041;-62
2023/01/14 07:51:08;;;;;;;8.45;7.13;;;;;;;;;;5032586;28;20103;-62
2023/01/14 07:53:33;;;;;;;10.23;8.00;;;;;;;;;;5032729;28;20439;-61
2023/01/14 07:56:03;;;;;;;15.48;9.85;;;;;;;;;;5032417;28;20045;-61
2023/01/14 07:58:28;;;;;;;16.20;9.88;;;;;;;;;;5032539;28;20538;-62
2023/01/14 08:00:53;;;;;;;12.65;9.40;;;;;;;;;;5031651;28;20050;-61
2023/01/14 08:03:19;;;;;;;9.00;7.13;;;;;;;;;;5032656;28;20048;-60
2023/01/14 08:05:45;;;;;;;11.43;6.65;;;;;;;;;;5032299;28;20040;-59
2023/01/14 08:08:11;;;;;;;6.80;5.68;;;;;;;;;;5032307;28;20033;-60
2023/01/14 08:10:36;;;;;;;11.30;7.50;;;;;;;;;;5032336;28;20049;-60
2023/01/14 08:13:02;;;;;;;9.38;7.65;;;;;;;;;;5032468;28;20050;-59
2023/01/14 08:15:28;;;;;;;9.88;7.50;;;;;;;;;;5032739;28;20073;-60
2023/01/14 08:17:54;;;;;;;11.45;7.22;;;;;;;;;;5015073;28;20076;-60
2023/01/14 08:20:22;;;;;;;9.45;6.93;;;;;;;;;;5032416;28;20496;-60
2023/01/14 08:22:48;;;;;;;9.50;7.32;;;;;;;;;;5031957;28;20091;-61
2023/01/14 08:25:13;;;;;;;10.00;7.60;;;;;;;;;;5014640;28;20128;-61
2023/01/14 08:27:39;;;;;;;9.70;8.07;;;;;;;;;;5014413;28;20129;-61
2023/01/14 08:30:04;;;;;;;13.95;9.80;;;;;;;;;;5031215;28;20049;-61
2023/01/14 08:32:30;;;;;;;11.98;8.73;;;;;;;;;;5030398;28;20508;-61
2023/01/14 08:34:55;;;;;;;12.23;8.15;;;;;;;;;;5030819;28;20381;-61
2023/01/14 08:37:20;;;;;;;10.75;8.23;;;;;;;;;;5030612;28;20088;-61
2023/01/14 08:39:45;;;;;;;46.40;25.00;;;;;;;;;;5030204;28;20049;-61
2023/01/14 08:42:11;;;;;;;38.22;21.15;;;;;;;;;;5012634;28;20076;-61
2023/01/14 08:44:36;;;;;;;17.90;10.35;;;;;;;;;;5030280;28;20053;-62
2023/01/14 08:47:01;;;;;;;19.60;11.90;;;;;;;;;;5030111;28;20044;-61
2023/01/14 08:49:31;;;;;;;22.35;13.18;;;;;;;;;;5030497;28;20477;-61
2023/01/14 08:51:57;;;;;;;20.80;12.45;;;;;;;;;;5031125;28;20046;-60
2023/01/14 08:54:22;;;;;;;22.98;14.73;;;;;;;;;;5014085;28;20044;-60
2023/01/14 08:56:48;;;;;;;18.75;14.93;;;;;;;;;;5014752;28;20080;-60
2023/01/14 08:59:13;;;;;;;22.67;15.32;;;;;;;;;;5032426;28;20116;-60
2023/01/14 09:01:38;;;;;;;21.80;14.80;;;;;;;;;;5032602;28;20481;-60
2023/01/14 09:04:04;;;;;;;22.42;15.57;;;;;;;;;;5014360;28;20101;-60
2023/01/14 09:06:29;;;;;;;19.27;13.68;;;;;;;;;;5031874;28;20047;-60
2023/01/14 09:17:17;;;;;;;12.60;9.20;;;;;;;;;;5035218;28;20045;-63
2023/01/14 09:19:47;;;;;;;9.10;7.05;;;;;;;;;;5017457;28;20091;-63
2023/01/14 09:22:14;;;;;;;12.02;7.05;;;;;;;;;;5035044;28;20113;-63
2023/01/14 09:24:40;;;;;;;9.98;7.25;;;;;;;;;;5034898;28;20045;-63
2023/01/14 09:27:05;;;;;;;9.95;7.00;;;;;;;;;;5035559;28;20045;-63
2023/01/14 09:29:31;;;;;;;10.90;7.18;;;;;;;;;;5034778;28;20038;-63
2023/01/14 09:31:56;;;;;;;11.25;7.68;;;;;;;;;;5035159;28;20037;-62
2023/01/14 09:34:21;;;;;;;11.18;7.40;;;;;;;;;;5017378;28;20033;-63
2023/01/14 09:36:46;;;;;;;11.35;7.85;;;;;;;;;;5017153;28;20495;-63
2023/01/14 09:39:12;;;;;;;12.13;8.20;;;;;;;;;;5035007;28;20041;-63
2023/01/14 09:41:43;;;;;;;10.80;7.00;;;;;;;;;;5034597;28;20455;-63
2023/01/14 09:44:11;;;;;;;10.85;7.45;;;;;;;;;;5034547;28;20053;-62
2023/01/14 09:46:36;;;;;;;9.35;6.47;;;;;;;;;;5034670;28;20027;-63
2023/01/14 09:49:03;;;;;;;9.30;6.88;;;;;;;;;;5034763;28;20099;-63
2023/01/14 09:51:36;;;;;;;9.45;7.05;;;;;;;;;;5034836;28;20095;-64
2023/01/14 09:54:05;;;;;;;11.25;7.38;;;;;;;;;;5034650;28;20072;-63
2023/01/14 09:56:59;;;;;;;9.73;6.80;;;;;;;;;;5034404;28;20056;-63
2023/01/14 09:59:32;;;;;;;11.50;7.28;;;;;;;;;;4946964;28;20043;-63
2023/01/14 10:02:00;;;;;;;11.15;7.15;;;;;;;;;;5034430;28;20472;-63
2023/01/14 10:04:35;;;;;;;8.80;6.60;;;;;;;;;;5034372;28;20438;-63
2023/01/14 10:07:06;;;;;;;8.88;6.45;;;;;;;;;;5034191;28;20084;-63
2023/01/14 10:09:40;;;;;;;9.68;6.10;;;;;;;;;;5034317;28;20033;-63
2023/01/14 10:12:07;;;;;;;7.55;5.97;;;;;;;;;;5034306;28;20038;-63
2023/01/14 10:14:53;;;;;;;11.68;6.90;;;;;;;;;;5034286;28;20039;-63
2023/01/14 10:17:20;;;;;;;9.88;7.75;;;;;;;;;;5033519;28;20033;-63
2023/01/14 10:19:47;;;;;;;16.70;10.30;;;;;;;;;;5034078;28;20038;-64
2023/01/14 10:22:13;;;;;;;14.35;9.13;;;;;;;;;;5034045;28;20521;-63
2023/01/14 10:24:39;;;;;;;9.55;6.50;;;;;;;;;;5015459;28;20040;-63
2023/01/14 10:27:12;;;;;;;10.27;6.07;;;;;;;;;;5016519;28;20018;-63
2023/01/14 10:29:38;;;;;;;9.75;6.75;;;;;;;;;;5033882;28;20041;-63
2023/01/14 10:32:03;;;;;;;12.05;7.88;;;;;;;;;;5034113;28;20037;-63
2023/01/14 10:34:32;;;;;;;9.98;6.32;;;;;;;;;;5033780;28;20037;-63
2023/01/14 10:36:57;;;;;;;8.15;5.50;;;;;;;;;;5016304;28;20041;-63
2023/01/14 10:39:23;;;;;;;11.07;6.35;;;;;;;;;;5016290;28;20033;-63
2023/01/14 10:41:49;;;;;;;11.45;6.97;;;;;;;;;;5033590;28;20335;-64
2023/01/14 10:44:25;;;;;;;13.23;7.82;;;;;;;;;;5034343;28;20389;-63
2023/01/14 10:46:56;;;;;;;19.58;10.35;;;;;;;;;;5034227;28;20120;-63
2023/01/14 10:49:45;;;;;;;9.32;6.18;;;;;;;;;;5033729;28;20041;-67
2023/01/14 10:52:19;;;;;;;8.82;6.22;;;;;;;;;;5020357;28;20045;-67
2023/01/14 10:55:01;;;;;;;9.73;6.18;;;;;;;;;;5015658;28;20037;-67
2023/01/14 10:57:32;;;;;;;8.77;5.53;;;;;;;;;;5013566;28;20138;-67
2023/01/14 10:59:58;;;;;;;8.57;5.43;;;;;;;;;;5013527;28;20042;-67
2023/01/14 11:02:33;;;;;;;9.60;5.32;;;;;;;;;;5013708;28;20098;-67
2023/01/14 11:04:58;;;;;;;6.88;5.50;;;;;;;;;;5010047;28;20141;-66
2023/01/14 11:07:39;;;;;;;7.00;4.95;;;;;;;;;;4995971;28;20109;-67
2023/01/14 11:10:17;;;;;;;6.68;4.20;;;;;;;;;;5013560;28;20046;-67
2023/01/14 11:12:42;;;;;;;7.20;4.80;;;;;;;;;;5013366;28;20044;-67
2023/01/14 11:15:27;;;;;;;7.20;4.38;;;;;;;;;;4996021;28;20042;-66
2023/01/14 11:17:53;;;;;;;9.82;4.75;;;;;;;;;;4995437;28;20037;-66
2023/01/14 11:20:21;;;;;;;6.78;4.50;;;;;;;;;;5013200;28;20541;-67
2023/01/14 11:22:56;;;;;;;6.03;4.70;;;;;;;;;;5013075;28;20030;-66
2023/01/14 11:25:22;;;;;;;8.48;4.78;;;;;;;;;;4994225;28;20061;-67
2023/01/14 11:27:48;;;;;;;6.03;4.47;;;;;;;;;;5013102;28;20375;-67
2023/01/14 11:30:15;;;;;;;8.38;4.65;;;;;;;;;;5012968;28;20049;-67
2023/01/14 11:32:45;;;;;;;6.50;4.55;;;;;;;;;;5012604;28;20049;-67
2023/01/14 11:35:33;;;;;;;6.43;4.20;;;;;;;;;;5013009;28;20042;-68
2023/01/14 11:37:59;;;;;;;5.65;4.40;;;;;;;;;;5013048;28;20050;-69
2023/01/14 11:41:28;;;;;;;8.15;5.53;;;;;;;;;;5012997;28;20066;-69
2023/01/14 11:43:13;;;;;;;6.45;4.70;;;;;;;;;;5012687;28;20565;-69
2023/01/14 11:45:38;;;;;;;6.72;5.03;;;;;;;;;;5012816;28;20461;-69
2023/01/14 11:48:21;;;;;;;8.10;4.80;;;;;;;;;;5012613;28;20026;-69
2023/01/14 11:50:54;;;;;;;7.20;4.47;;;;;;;;;;5012909;28;20421;-69
2023/01/14 11:53:26;;;;;;;6.95;4.07;;;;;;;;;;5012749;28;20061;-69
2023/01/14 11:55:51;;;;;;;5.95;4.30;;;;;;;;;;5019983;28;20115;-68
2023/01/14 11:58:18;;;;;;;6.10;3.80;;;;;;;;;;5032455;28;20490;-68
2023/01/14 12:01:05;;;;;;;7.28;4.38;;;;;;;;;;5032270;28;20491;-68
2023/01/14 12:03:34;;;;;;;5.05;3.35;;;;;;;;;;5032164;28;20038;-67
2023/01/14 12:06:01;;;;;;;7.25;4.22;;;;;;;;;;5014845;28;20507;-67
2023/01/14 12:08:29;;;;;;;6.60;4.25;;;;;;;;;;5032031;28;20120;-68
2023/01/14 12:10:59;;;;;;;8.43;3.67;;;;;;;;;;5032388;28;20038;-68
2023/01/14 12:16:49;;;;;;;6.53;4.18;;;;;;;;;;5032287;28;20033;-68
2023/01/14 12:19:20;;;;;;;6.03;4.07;;;;;;;;;;5014428;28;20493;-68
2023/01/14 12:21:49;;;;;;;4.72;3.55;;;;;;;;;;5032036;28;20124;-68
2023/01/14 12:24:18;;;;;;;5.32;3.78;;;;;;;;;;5032293;28;20413;-68
2023/01/14 12:26:45;;;;;;;6.40;4.32;;;;;;;;;;5032297;28;20544;-68
2023/01/14 12:29:13;;;;;;;7.93;3.83;;;;;;;;;;5014348;28;20041;-68
2023/01/14 12:31:41;;;;;;;7.97;4.65;;;;;;;;;;5014419;28;20021;-68
2023/01/14 12:34:10;;;;;;;12.02;6.45;;;;;;;;;;5031967;28;20041;-68
2023/01/14 12:36:45;;;;;;;5.75;4.28;;;;;;;;;;4998279;28;20489;-68
2023/01/14 12:47:38;;;;;;;5.72;3.78;;;;;;;;;;5034401;28;20116;-68
2023/01/14 12:50:08;;;;;;;4.90;3.60;;;;;;;;;;5018267;28;20061;-67
2023/01/14 12:52:35;;;;;;;7.50;3.78;;;;;;;;;;5035811;28;20034;-67
2023/01/14 12:55:02;;;;;;;9.40;4.72;;;;;;;;;;5035932;28;20029;-67
2023/01/14 12:57:28;;;;;;;7.35;4.40;;;;;;;;;;5035666;28;20048;-67
2023/01/14 13:00:01;;;;;;;6.38;3.95;;;;;;;;;;5018101;28;20067;-67
2023/01/14 13:02:43;;;;;;;8.82;3.42;;;;;;;;;;5036421;28;20030;-67
2023/01/14 13:05:10;;;;;;;9.00;4.20;;;;;;;;;;5017974;28;20038;-67
2023/01/14 13:07:38;;;;;;;5.57;3.80;;;;;;;;;;5035788;28;20537;-68
2023/01/14 13:10:06;;;;;;;5.63;3.60;;;;;;;;;;5018077;28;20060;-68
2023/01/14 13:12:31;;;;;;;5.15;3.65;;;;;;;;;;5018310;28;20056;-69
2023/01/14 13:15:16;;;;;;;5.45;3.63;;;;;;;;;;5036364;28;20038;-68
2023/01/14 13:17:42;;;;;;;4.80;3.40;;;;;;;;;;5036420;28;20044;-70
2023/01/14 13:20:20;;;;;;;3.50;3.17;;;;;;;;;;5035968;28;20037;-63
2023/01/14 13:22:47;;;;;;;6.72;4.38;;;;;;;;;;5035601;28;20113;-62
2023/01/14 13:25:34;;;;;;;6.10;3.47;;;;;;;;;;5035675;28;20037;-64
2023/01/14 13:28:11;;;;;;;9.27;6.13;;;;;;;;;;5035369;28;20068;-64
2023/01/14 13:30:40;;;;;;;9.10;6.07;;;;;;;;;;5035796;28;20499;-64
2023/01/14 13:33:16;;;;;;;5.43;3.30;;;;;;;;;;5035855;28;20037;-63
2023/01/14 13:35:42;;;;;;;4.50;3.35;;;;;;;;;;5017640;28;20128;-62
2023/01/14 13:38:19;;;;;;;8.68;4.20;;;;;;;;;;5001851;28;20128;-67
2023/01/14 13:40:52;;;;;;;7.22;4.43;;;;;;;;;;5035769;28;20061;-66
2023/01/14 13:43:22;;;;;;;5.07;3.97;;;;;;;;;;5017906;28;20030;-71
2023/01/14 13:45:52;;;;;;;7.25;4.35;;;;;;;;;;5035920;28;20037;-70
2023/01/14 13:48:20;;;;;;;5.90;4.07;;;;;;;;;;5017237;28;20033;-64
2023/01/14 13:50:48;;;;;;;4.97;3.83;;;;;;;;;;5035812;28;20122;-64
2023/01/14 13:53:16;;;;;;;5.20;3.72;;;;;;;;;;5036300;28;20045;-64
2023/01/14 13:55:48;;;;;;;4.75;3.45;;;;;;;;;;5035535;28;20053;-64
2023/01/14 13:58:17;;;;;;;6.57;3.42;;;;;;;;;;5034237;28;20100;-66
2023/01/14 14:00:44;;;;;;;5.95;3.90;;;;;;;;;;5035524;28;20547;-66
2023/01/14 14:03:28;;;;;;;4.45;3.35;;;;;;;;;;5018066;28;20084;-66
2023/01/14 14:06:12;;;;;;;5.90;3.92;;;;;;;;;;5035484;28;20029;-63
2023/01/14 14:08:38;;;;;;;5.32;4.55;;;;;;;;;;5035472;28;20065;-65
2023/01/14 14:11:10;;;;;;;8.25;5.13;;;;;;;;;;5035464;28;20127;-66
2023/01/14 14:16:23;;;;;;;14.40;7.97;;;;;;;;;;5035053;28;20049;-65
2023/01/14 14:18:52;;;;;;;18.02;8.40;;;;;;;;;;5016314;28;20052;-65
2023/01/14 14:21:19;;;;;;;12.63;7.47;;;;;;;;;;5033925;28;20500;-65
2023/01/14 14:23:47;;;;;;;12.68;8.70;;;;;;;;;;5034203;28;20118;-70
2023/01/14 14:26:15;;;;;;;11.77;7.28;;;;;;;;;;5034233;28;20080;-65
2023/01/14 14:28:41;;;;;;;11.38;6.43;;;;;;;;;;5034133;28;20397;-65
2023/01/14 14:31:08;;;;;;;9.13;6.68;;;;;;;;;;5033821;28;20045;-65
2023/01/14 14:33:36;;;;;;;9.40;6.88;;;;;;;;;;5034428;28;20042;-65
2023/01/14 14:36:09;;;;;;;7.75;5.13;;;;;;;;;;5035101;28;20033;-65
2023/01/14 14:38:35;;;;;;;11.73;5.75;;;;;;;;;;5035382;28;20041;-64
2023/01/14 14:41:04;;;;;;;8.82;4.85;;;;;;;;;;5034724;28;20125;-64
2023/01/14 14:43:29;;;;;;;9.45;4.57;;;;;;;;;;5034121;28;20090;-64
2023/01/14 14:45:59;;;;;;;6.00;4.10;;;;;;;;;;5016478;28;20062;-64
2023/01/14 14:48:26;;;;;;;4.97;4.28;;;;;;;;;;5034283;28;20462;-64
2023/01/14 14:50:52;;;;;;;6.38;3.45;;;;;;;;;;5032637;28;20438;-64
2023/01/14 14:53:31;;;;;;;6.95;3.70;;;;;;;;;;5031819;28;20071;-64
2023/01/14 14:55:58;;;;;;;5.70;3.80;;;;;;;;;;5031855;28;20049;-64
2023/01/14 14:58:24;;;;;;;5.78;3.63;;;;;;;;;;5032296;28;20038;-64
2023/01/14 15:01:00;;;;;;;5.07;3.22;;;;;;;;;;5032505;28;20045;-64
2023/01/14 15:03:29;;;;;;;12.70;7.85;;;;;;;;;;5032426;28;20037;-64
2023/01/14 15:05:55;;;;;;;24.38;12.95;;;;;;;;;;5015091;28;20548;-64
2023/01/14 15:08:23;;;;;;;25.85;16.33;;;;;;;;;;5034457;28;20029;-64
2023/01/14 15:10:49;;;;;;;26.27;16.25;;;;;;;;;;5034377;28;20045;-64
2023/01/14 15:13:19;;;;;;;14.32;8.05;;;;;;;;;;5034405;28;20049;-71
2023/01/14 15:15:44;;;;;;;14.68;8.48;;;;;;;;;;5034441;28;20393;-71
2023/01/14 15:18:28;;;;;;;11.45;9.38;;;;;;;;;;5034313;28;20038;-71
2023/01/14 15:20:54;;;;;;;14.65;10.25;;;;;;;;;;5034732;28;20041;-71